Time;durP1;ratioP1;P1;durP2;ratioP2;P2;SDS_P1;SDS_P2;PMS_P1;PMS_P2;Temp;Humidity;BMP_temperature;BMP_pressure;BME280_temperature;BME280_humidity;BME280_pressure;Samples;Min_cycle;Max_cycle;Signal;HPM_P1;HPM_P2
2023/12/21 00:02:08;;;;;;;25.75;22.88;;;19.40;87.90;;;;;;5020436;28;20069;-64
2023/12/21 00:04:34;;;;;;;27.08;21.75;;;;;;;;;;5016644;28;20128;-64
2023/12/21 00:07:00;;;;;;;22.35;19.95;;;19.50;87.80;;;;;;5045114;28;20050;-64
2023/12/21 00:09:27;;;;;;;22.58;20.13;;;;;;;;;;5046628;28;20061;-64
2023/12/21 00:11:52;;;;;;;20.40;18.20;;;19.50;87.70;;;;;;5032085;28;20049;-65
2023/12/21 00:14:18;;;;;;;19.17;17.02;;;19.50;87.70;;;;;;5033527;28;20495;-70
2023/12/21 00:16:44;;;;;;;22.02;16.58;;;19.30;87.60;;;;;;5048454;28;20053;-70
2023/12/21 00:19:10;;;;;;;19.35;16.15;;;19.50;87.70;;;;;;5063071;28;20115;-71
2023/12/21 00:21:35;;;;;;;19.05;15.43;;;19.40;87.70;;;;;;5031170;28;20046;-70
2023/12/21 00:24:01;;;;;;;16.35;13.85;;;19.40;87.60;;;;;;5013230;28;20052;-70
2023/12/21 00:26:27;;;;;;;17.98;13.68;;;;;;;;;;5012487;28;20058;-70
2023/12/21 00:28:53;;;;;;;18.48;13.35;;;19.30;87.70;;;;;;5014876;28;20076;-65
2023/12/21 00:31:20;;;;;;;15.70;12.95;;;19.40;87.80;;;;;;5014365;28;20089;-65
2023/12/21 00:33:45;;;;;;;17.00;12.38;;;19.30;87.80;;;;;;5013164;28;20048;-65
2023/12/21 00:36:17;;;;;;;14.25;11.05;;;19.40;87.80;;;;;;4995741;28;20503;-68
2023/12/21 00:38:43;;;;;;;15.60;10.68;;;19.40;86.10;;;;;;5011153;28;20049;-67
2023/12/21 00:41:09;;;;;;;15.07;10.18;;;19.30;87.70;;;;;;5025575;28;20041;-65
2023/12/21 00:43:35;;;;;;;13.07;10.50;;;19.50;87.90;;;;;;5014040;28;20052;-68
2023/12/21 00:46:01;;;;;;;13.07;9.30;;;;;;;;;;5011901;28;20034;-68
2023/12/21 00:48:27;;;;;;;13.63;9.35;;;19.30;87.70;;;;;;5044749;28;20503;-67
2023/12/21 00:50:53;;;;;;;13.77;9.57;;;19.40;87.90;;;;;;5018156;28;20041;-65
2023/12/21 00:53:19;;;;;;;13.27;8.82;;;19.20;85.60;;;;;;5031550;28;20507;-67
2023/12/21 00:55:45;;;;;;;13.30;8.40;;;19.20;87.80;;;;;;5013093;28;20401;-70
2023/12/21 00:58:11;;;;;;;13.07;8.55;;;;;;;;;;5025292;28;20042;-67
2023/12/21 01:00:37;;;;;;;10.55;7.60;;;19.10;87.90;;;;;;5062834;28;20394;-65
2023/12/21 01:03:03;;;;;;;11.55;7.65;;;19.10;88.10;;;;;;5021276;28;20115;-67
2023/12/21 01:05:29;;;;;;;10.55;7.32;;;;;;;;;;5013299;28;20042;-66
2023/12/21 01:07:55;;;;;;;11.80;7.15;;;19.20;86.50;;;;;;5047471;28;20050;-68
2023/12/21 01:10:21;;;;;;;12.65;7.05;;;19.20;88.10;;;;;;5022502;28;20049;-66
2023/12/21 01:12:46;;;;;;;11.23;6.88;;;19.20;88.10;;;;;;5045965;28;20117;-65
2023/12/21 01:15:13;;;;;;;10.60;6.75;;;;;;;;;;5017470;28;20108;-66
2023/12/21 01:17:39;;;;;;;11.88;6.30;;;;;;;;;;5024120;28;20050;-65
2023/12/21 01:20:05;;;;;;;9.00;6.00;;;19.10;88.10;;;;;;5061110;28;20041;-66
2023/12/21 01:22:31;;;;;;;8.55;5.68;;;19.10;85.40;;;;;;5026206;28;20514;-66
2023/12/21 01:24:57;;;;;;;10.05;5.78;;;19.20;88.30;;;;;;5020096;28;20055;-69
2023/12/21 01:27:23;;;;;;;9.75;5.90;;;19.10;88.30;;;;;;5016776;28;20061;-66
2023/12/21 01:29:49;;;;;;;9.38;5.45;;;18.90;88.10;;;;;;5044631;28;20495;-65
2023/12/21 01:32:15;;;;;;;9.93;5.47;;;18.90;88.20;;;;;;5044229;28;20057;-69
2023/12/21 01:34:41;;;;;;;13.13;5.25;;;;;;;;;;5026030;28;20046;-66
2023/12/21 01:37:06;;;;;;;8.80;5.22;;;19.00;88.30;;;;;;5049956;28;20442;-67
2023/12/21 01:39:32;;;;;;;9.27;4.55;;;19.00;85.70;;;;;;5045025;28;20042;-65
2023/12/21 01:41:58;;;;;;;12.07;5.32;;;18.80;88.00;;;;;;5013265;28;20037;-67
2023/12/21 01:44:24;;;;;;;9.13;4.57;;;18.80;88.30;;;;;;5017978;28;20037;-67
2023/12/21 01:46:49;;;;;;;9.75;4.93;;;18.90;88.30;;;;;;5030214;28;20045;-67
2023/12/21 01:49:16;;;;;;;8.23;4.53;;;;;;;;;;5028293;28;20481;-68
2023/12/21 01:51:41;;;;;;;10.75;4.35;;;19.00;85.20;;;;;;5015709;28;20055;-68
2023/12/21 01:54:07;;;;;;;8.48;4.18;;;18.90;88.40;;;;;;5016936;28;20045;-68
2023/12/21 01:56:33;;;;;;;9.05;4.13;;;18.90;88.40;;;;;;5043832;28;20046;-68
2023/12/21 01:58:59;;;;;;;8.55;4.15;;;18.80;86.30;;;;;;5023078;28;20077;-67
2023/12/21 02:01:26;;;;;;;8.85;4.10;;;18.80;88.00;;;;;;5021611;28;20088;-68
2023/12/21 02:03:53;;;;;;;8.10;4.10;;;18.90;88.50;;;;;;5026151;28;20849;-66
2023/12/21 02:06:19;;;;;;;8.52;3.53;;;;;;;;;;5016049;28;20049;-64
2023/12/21 02:08:45;;;;;;;11.05;3.92;;;;;;;;;;5016007;28;20539;-64
2023/12/21 02:11:11;;;;;;;8.00;3.45;;;18.70;88.40;;;;;;5045559;28;20065;-65
2023/12/21 02:13:37;;;;;;;8.27;3.63;;;;;;;;;;5025572;28;20700;-64
2023/12/21 02:16:10;;;;;;;8.77;3.67;;;18.70;88.50;;;;;;5015870;28;20088;-64
2023/12/21 02:18:36;;;;;;;7.93;3.25;;;;;;;;;;5015239;28;20046;-64
2023/12/21 02:21:02;;;;;;;7.20;3.47;;;18.70;88.60;;;;;;5048838;28;20407;-64
2023/12/21 02:23:29;;;;;;;8.77;3.17;;;18.70;88.20;;;;;;5030211;28;20057;-64
2023/12/21 02:25:55;;;;;;;9.32;3.72;;;18.60;88.60;;;;;;5064739;28;20092;-67
2023/12/21 02:28:21;;;;;;;8.48;3.60;;;18.70;87.50;;;;;;5017816;28;20049;-67
2023/12/21 02:30:47;;;;;;;7.68;3.10;;;18.60;88.80;;;;;;5024609;28;20470;-70
2023/12/21 02:33:16;;;;;;;7.50;3.10;;;18.60;88.80;;;;;;5015586;28;20057;-64
2023/12/21 02:35:42;;;;;;;7.07;3.10;;;18.60;88.80;;;;;;5029975;28;20034;-65
2023/12/21 02:38:08;;;;;;;8.07;3.00;;;18.50;88.80;;;;;;5024869;28;20617;-66
2023/12/21 02:40:34;;;;;;;7.43;2.88;;;;;;;;;;5015676;28;20045;-65
2023/12/21 02:43:00;;;;;;;6.85;2.80;;;18.60;88.90;;;;;;5064330;28;20096;-69
2023/12/21 02:45:26;;;;;;;5.57;2.63;;;;;;;;;;5057750;28;20487;-67
2023/12/21 02:47:52;;;;;;;5.82;2.55;;;;;;;;;;5017180;28;20046;-67
2023/12/21 02:50:18;;;;;;;7.05;3.05;;;18.50;88.90;;;;;;5025995;28;20041;-69
2023/12/21 02:52:43;;;;;;;7.28;2.60;;;18.50;89.00;;;;;;5023563;28;20072;-66
2023/12/21 02:55:10;;;;;;;7.30;2.70;;;;;;;;;;5032361;28;20449;-66
2023/12/21 02:57:36;;;;;;;8.75;2.63;;;;;;;;;;5014888;28;20456;-69
2023/12/21 03:00:01;;;;;;;8.40;3.13;;;18.50;87.30;;;;;;5013726;28;20049;-68
2023/12/21 03:02:27;;;;;;;7.03;2.40;;;18.20;89.00;;;;;;5038229;28;20475;-69
2023/12/21 03:04:53;;;;;;;6.97;2.40;;;;;;;;;;5021406;28;20038;-68
2023/12/21 03:07:19;;;;;;;8.63;2.67;;;18.30;89.10;;;;;;5013766;28;20058;-70
2023/12/21 03:09:45;;;;;;;7.15;2.47;;;;;;;;;;5046845;28;20064;-69
2023/12/21 03:12:11;;;;;;;7.25;2.40;;;18.20;89.30;;;;;;5020171;28;20058;-69
2023/12/21 03:14:37;;;;;;;6.95;2.47;;;;;;;;;;5024824;28;20057;-64
2023/12/21 03:17:03;;;;;;;6.97;2.75;;;18.40;89.50;;;;;;5018421;28;20045;-70
2023/12/21 03:19:29;;;;;;;8.93;2.53;;;18.10;89.40;;;;;;5014589;28;20053;-70
2023/12/21 03:21:55;;;;;;;7.22;2.45;;;;;;;;;;5033533;28;20045;-69
2023/12/21 03:24:22;;;;;;;6.00;2.05;;;;;;;;;;5051912;28;20076;-69
2023/12/21 03:26:47;;;;;;;7.18;2.00;;;18.10;89.20;;;;;;5030793;28;20045;-70
2023/12/21 03:29:14;;;;;;;6.07;2.50;;;18.10;89.70;;;;;;5012769;28;20042;-69
2023/12/21 03:31:40;;;;;;;6.88;2.13;;;18.20;89.70;;;;;;5014670;28;20056;-68
2023/12/21 03:34:06;;;;;;;10.07;2.35;;;;;;;;;;5013728;28;20037;-70
2023/12/21 03:36:32;;;;;;;8.32;2.35;;;17.90;87.60;;;;;;5059483;28;20454;-69
2023/12/21 03:38:59;;;;;;;7.38;2.10;;;17.90;87.60;;;;;;5023995;28;20041;-69
2023/12/21 03:41:25;;;;;;;5.25;2.20;;;18.00;89.80;;;;;;5014146;28;20046;-70
2023/12/21 03:43:51;;;;;;;6.90;1.80;;;;;;;;;;5031214;28;20114;-68
2023/12/21 03:46:17;;;;;;;5.95;2.22;;;18.10;88.10;;;;;;5030319;28;20052;-68
2023/12/21 03:48:43;;;;;;;8.43;2.40;;;18.00;90.00;;;;;;5017214;28;20124;-70
2023/12/21 03:51:08;;;;;;;5.70;1.95;;;17.80;89.80;;;;;;5013842;28;20100;-69
2023/12/21 03:53:34;;;;;;;8.15;2.40;;;;;;;;;;5012310;28;20443;-69
2023/12/21 03:56:00;;;;;;;5.40;1.90;;;18.00;90.00;;;;;;5026550;28;20048;-70
2023/12/21 03:58:26;;;;;;;6.25;2.35;;;;;;;;;;5032865;28;20120;-70
2023/12/21 04:00:52;;;;;;;4.75;1.83;;;17.80;90.10;;;;;;5028524;28;20557;-70
2023/12/21 04:03:18;;;;;;;6.38;1.73;;;;;;;;;;5028575;28;20089;-68
2023/12/21 04:05:44;;;;;;;6.63;2.10;;;17.90;90.20;;;;;;5012476;28;20510;-68
2023/12/21 04:08:13;;;;;;;6.10;1.92;;;17.90;90.10;;;;;;4998587;28;20124;-64
2023/12/21 04:10:38;;;;;;;6.95;2.15;;;17.70;90.00;;;;;;5015132;28;20554;-69
2023/12/21 04:13:04;;;;;;;5.82;2.10;;;17.60;90.10;;;;;;5029442;28;20145;-68
2023/12/21 04:15:30;;;;;;;6.97;2.15;;;17.70;90.20;;;;;;5023037;28;20483;-63
2023/12/21 04:17:56;;;;;;;5.95;1.77;;;17.80;90.20;;;;;;5020710;28;20054;-67
2023/12/21 04:20:22;;;;;;;4.78;1.75;;;;;;;;;;5022395;28;20052;-65
2023/12/21 04:22:48;;;;;;;5.40;1.98;;;17.60;90.20;;;;;;5019285;28;20052;-65
2023/12/21 04:25:14;;;;;;;5.88;2.13;;;;;;;;;;5020305;28;20450;-66
2023/12/21 04:27:40;;;;;;;7.95;2.10;;;;;;;;;;5029342;28;20098;-65
2023/12/21 04:30:06;;;;;;;4.40;1.55;;;17.60;90.30;;;;;;5061124;28;20054;-68
2023/12/21 04:32:32;;;;;;;6.47;1.80;;;17.50;90.30;;;;;;5052836;28;20458;-68
2023/12/21 04:34:58;;;;;;;7.28;2.10;;;17.70;90.30;;;;;;5014448;28;20080;-66
2023/12/21 04:37:24;;;;;;;9.90;1.70;;;17.70;90.40;;;;;;5028016;28;20166;-69
2023/12/21 04:39:50;;;;;;;7.35;1.95;;;;;;;;;;5023648;28;20429;-65
2023/12/21 04:42:15;;;;;;;5.68;2.03;;;17.70;90.40;;;;;;5046094;28;20058;-67
2023/12/21 04:44:41;;;;;;;5.95;1.55;;;;;;;;;;5016661;28;20168;-69
2023/12/21 04:47:09;;;;;;;5.38;2.20;;;17.50;90.50;;;;;;5058126;28;20459;-68
2023/12/21 04:49:36;;;;;;;7.68;1.70;;;;;;;;;;5015485;28;20132;-67
2023/12/21 04:52:02;;;;;;;3.97;1.52;;;17.50;90.50;;;;;;5028473;28;20054;-66
2023/12/21 04:54:28;;;;;;;8.18;2.00;;;;;;;;;;5012918;28;20408;-68
2023/12/21 04:56:54;;;;;;;6.30;1.90;;;17.40;90.50;;;;;;5013279;28;20136;-67
2023/12/21 04:59:20;;;;;;;4.57;1.60;;;;;;;;;;5028004;28;20511;-67
2023/12/21 05:01:50;;;;;;;5.95;1.95;;;17.60;87.30;;;;;;5027659;28;20097;-66
2023/12/21 05:04:16;;;;;;;6.30;1.75;;;;;;;;;;5015395;28;20055;-67
2023/12/21 05:06:42;;;;;;;6.38;1.95;;;17.50;90.60;;;;;;5029342;28;20073;-65
2023/12/21 05:09:07;;;;;;;5.00;1.70;;;17.50;89.10;;;;;;4998358;28;20053;-65
2023/12/21 05:11:33;;;;;;;5.32;1.88;;;;;;;;;;5027902;28;20053;-66
2023/12/21 05:14:00;;;;;;;5.03;1.52;;;;;;;;;;5051232;28;20038;-65
2023/12/21 05:16:25;;;;;;;6.78;2.13;;;17.50;90.70;;;;;;5060471;28;20459;-67
2023/12/21 05:18:51;;;;;;;4.50;1.50;;;;;;;;;;5020276;28;20077;-66
2023/12/21 05:21:17;;;;;;;4.65;1.30;;;;;;;;;;5018494;28;20042;-66
2023/12/21 05:23:43;;;;;;;4.85;1.52;;;17.40;90.60;;;;;;5046766;28;20095;-67
2023/12/21 05:26:12;;;;;;;5.90;1.80;;;17.30;89.00;;;;;;5012792;28;20057;-68
2023/12/21 05:28:43;;;;;;;5.80;1.75;;;17.30;90.70;;;;;;5013257;28;20534;-68
2023/12/21 05:31:09;;;;;;;5.30;1.65;;;17.40;90.80;;;;;;5047661;28;20130;-67
2023/12/21 05:33:35;;;;;;;4.00;1.52;;;;;;;;;;5031216;28;20189;-68
2023/12/21 05:36:02;;;;;;;4.97;1.52;;;17.20;90.70;;;;;;5026350;28;20046;-68
2023/12/21 05:38:28;;;;;;;6.63;2.08;;;17.30;90.70;;;;;;5048077;28;20050;-66
2023/12/21 05:40:54;;;;;;;4.10;1.52;;;17.30;88.80;;;;;;5047807;28;20041;-68
2023/12/21 05:43:21;;;;;;;3.92;1.58;;;;;;;;;;5037098;28;20071;-70
2023/12/21 05:45:47;;;;;;;5.00;1.65;;;17.30;90.90;;;;;;5053771;28;20474;-67
2023/12/21 05:48:12;;;;;;;4.80;1.30;;;17.40;90.90;;;;;;5018119;28;20116;-66
2023/12/21 05:50:38;;;;;;;5.72;1.65;;;;;;;;;;5016844;28;20142;-66
2023/12/21 05:53:05;;;;;;;5.00;1.52;;;;;;;;;;5018875;28;20042;-65
2023/12/21 05:55:31;;;;;;;4.55;1.58;;;17.30;90.90;;;;;;5016153;28;20097;-67
2023/12/21 05:57:57;;;;;;;5.80;1.83;;;17.30;90.90;;;;;;5019991;28;20048;-68
2023/12/21 06:00:22;;;;;;;3.97;1.48;;;17.20;90.90;;;;;;5060575;28;20037;-67
2023/12/21 06:02:49;;;;;;;3.22;1.40;;;;;;;;;;5022268;28;20057;-65
2023/12/21 06:05:14;;;;;;;3.90;1.40;;;17.30;90.90;;;;;;5056112;28;20045;-68
2023/12/21 06:07:40;;;;;;;3.63;1.20;;;17.10;90.90;;;;;;5043464;28;20065;-65
2023/12/21 06:10:08;;;;;;;3.97;1.40;;;17.30;91.00;;;;;;5014376;28;20153;-68
2023/12/21 06:12:34;;;;;;;3.63;1.30;;;;;;;;;;5015958;28;20045;-67
2023/12/21 06:15:00;;;;;;;3.88;1.40;;;17.20;91.00;;;;;;5019340;28;20402;-67
2023/12/21 06:17:26;;;;;;;4.07;1.35;;;17.10;90.90;;;;;;5055761;28;20057;-69
2023/12/21 06:19:52;;;;;;;3.78;1.30;;;;;;;;;;5030191;28;20045;-67
2023/12/21 06:22:18;;;;;;;3.60;1.30;;;17.20;91.10;;;;;;5018018;28;20048;-69
2023/12/21 06:24:44;;;;;;;4.13;1.50;;;17.20;91.10;;;;;;5034982;28;20049;-68
2023/12/21 06:27:10;;;;;;;5.00;1.63;;;;;;;;;;5031419;28;20049;-66
2023/12/21 06:29:36;;;;;;;5.40;1.80;;;;;;;;;;5015286;28;20124;-68
2023/12/21 06:32:03;;;;;;;4.25;1.40;;;17.20;91.10;;;;;;5032782;28;20549;-69
2023/12/21 06:34:29;;;;;;;4.93;1.80;;;17.20;91.10;;;;;;5026044;28;20104;-69
2023/12/21 06:36:54;;;;;;;4.75;1.52;;;17.10;91.10;;;;;;5024054;28;20446;-64
2023/12/21 06:39:20;;;;;;;4.05;1.40;;;17.10;91.20;;;;;;5033795;28;20372;-68
2023/12/21 06:41:46;;;;;;;4.55;1.77;;;17.00;90.50;;;;;;5025053;28;20057;-69
2023/12/21 06:44:12;;;;;;;4.03;1.42;;;17.10;91.20;;;;;;5015487;28;20392;-64
2023/12/21 06:46:38;;;;;;;4.55;1.55;;;;;;;;;;5014216;28;20045;-64
2023/12/21 06:49:04;;;;;;;3.47;1.13;;;;;;;;;;5034098;28;20449;-65
2023/12/21 06:51:30;;;;;;;5.88;1.50;;;17.10;91.20;;;;;;5025538;28;20484;-66
2023/12/21 06:53:56;;;;;;;7.20;2.08;;;;;;;;;;5013253;28;20053;-66
2023/12/21 06:56:22;;;;;;;6.78;1.67;;;17.00;90.20;;;;;;5018097;28;20046;-66
2023/12/21 06:58:47;;;;;;;5.32;1.70;;;17.30;91.30;;;;;;5014776;28;20057;-69
2023/12/21 07:01:13;;;;;;;5.15;1.60;;;17.10;91.20;;;;;;5014611;28;20037;-68
2023/12/21 07:03:39;;;;;;;4.63;1.70;;;16.90;91.20;;;;;;5015118;28;20057;-69
2023/12/21 07:06:05;;;;;;;5.78;1.70;;;;;;;;;;5047185;28;20049;-65
2023/12/21 07:08:31;;;;;;;4.90;1.50;;;16.90;91.20;;;;;;5017851;28;20403;-67
2023/12/21 07:10:57;;;;;;;5.63;1.88;;;17.10;91.30;;;;;;5028018;28;20052;-69
2023/12/21 07:13:22;;;;;;;5.70;1.67;;;17.00;91.10;;;;;;5031821;28;20053;-66
2023/12/21 07:15:49;;;;;;;8.07;1.98;;;;;;;;;;5020897;28;20045;-67
2023/12/21 07:18:15;;;;;;;5.35;1.70;;;17.00;91.30;;;;;;5049307;28;20085;-65
2023/12/21 07:20:41;;;;;;;4.88;1.55;;;;;;;;;;5029632;28;20077;-67
2023/12/21 07:23:07;;;;;;;6.13;1.75;;;17.00;91.30;;;;;;5052708;28;20049;-66
2023/12/21 07:25:33;;;;;;;5.65;1.80;;;;;;;;;;5024453;28;20041;-69
2023/12/21 07:27:59;;;;;;;16.55;2.30;;;17.00;91.40;;;;;;5055805;28;20052;-76
2023/12/21 07:30:24;;;;;;;62.28;41.67;;;17.00;91.40;;;;;;5021797;28;20050;-76
2023/12/21 07:32:50;;;;;;;71.78;38.60;;;16.90;91.50;;;;;;5049528;28;20132;-63
2023/12/21 07:35:16;;;;;;;79.72;37.28;;;17.10;91.60;;;;;;5053663;28;20105;-70
2023/12/21 07:37:42;;;;;;;144.68;68.65;;;17.00;91.60;;;;;;5015010;28;20057;-67
2023/12/21 07:40:08;;;;;;;221.30;174.32;;;17.10;91.60;;;;;;5013538;28;20131;-67
2023/12/21 07:42:34;;;;;;;333.48;298.17;;;;;;;;;;5021756;28;20041;-67
2023/12/21 07:45:00;;;;;;;298.67;268.40;;;16.90;91.60;;;;;;5033747;28;20037;-67
2023/12/21 07:47:26;;;;;;;295.90;266.10;;;17.10;91.60;;;;;;5025540;28;20060;-67
2023/12/21 07:49:52;;;;;;;270.65;244.88;;;17.10;91.60;;;;;;5018541;28;20444;-67
2023/12/21 07:52:18;;;;;;;248.63;224.35;;;16.90;91.60;;;;;;5030449;28;20049;-70
2023/12/21 07:54:44;;;;;;;227.07;204.90;;;17.00;91.60;;;;;;5018169;28;20078;-69
2023/12/21 07:57:10;;;;;;;216.02;195.25;;;17.00;91.00;;;;;;5013715;28;20045;-67
2023/12/21 07:59:36;;;;;;;203.18;184.52;;;16.90;91.60;;;;;;5014375;28;20145;-64
2023/12/21 08:02:02;;;;;;;179.52;162.10;;;;;;;;;;5048370;28;20069;-66
2023/12/21 08:04:29;;;;;;;162.43;147.23;;;;;;;;;;5029901;28;20045;-64
2023/12/21 08:06:55;;;;;;;149.73;135.65;;;;;;;;;;5025407;28;20050;-66
2023/12/21 08:09:21;;;;;;;132.57;120.38;;;17.10;91.50;;;;;;5027242;28;20373;-66
2023/12/21 08:11:47;;;;;;;122.90;111.53;;;17.10;91.50;;;;;;5013630;28;20045;-66
2023/12/21 08:14:13;;;;;;;164.18;148.35;;;17.30;91.50;;;;;;5020112;28;20437;-65
2023/12/21 08:16:39;;;;;;;388.58;348.85;;;;;;;;;;5014975;28;20046;-63
2023/12/21 08:19:06;;;;;;;269.25;242.18;;;;;;;;;;5013581;28;20491;-66
2023/12/21 08:21:32;;;;;;;247.27;223.13;;;18.00;91.20;;;;;;5022632;28;20046;-65
2023/12/21 08:23:58;;;;;;;225.52;202.95;;;18.10;90.90;;;;;;5053689;28;20423;-65
2023/12/21 08:26:24;;;;;;;198.25;178.70;;;18.30;90.70;;;;;;5026882;28;20048;-66
2023/12/21 08:28:49;;;;;;;178.48;161.15;;;18.50;90.50;;;;;;5015662;28;20045;-66
2023/12/21 08:31:28;;;;;;;164.00;147.82;;;18.50;87.10;;;;;;5049594;28;20042;-67
2023/12/21 08:33:54;;;;;;;145.45;131.82;;;18.50;90.20;;;;;;5054022;28;20095;-68
2023/12/21 08:36:20;;;;;;;127.65;115.38;;;18.70;90.20;;;;;;5017237;28;20041;-66
2023/12/21 08:38:46;;;;;;;109.25;99.22;;;;;;;;;;5027502;28;20053;-65
2023/12/21 08:41:12;;;;;;;101.93;92.20;;;18.70;90.10;;;;;;5035365;28;20098;-66
2023/12/21 08:43:38;;;;;;;88.20;79.97;;;18.80;90.10;;;;;;5027090;28;20053;-66
2023/12/21 08:46:04;;;;;;;75.20;68.00;;;18.80;90.20;;;;;;5019412;28;20041;-67
2023/12/21 08:48:29;;;;;;;71.47;64.53;;;18.90;90.20;;;;;;5063804;28;20038;-66
2023/12/21 08:50:56;;;;;;;63.42;57.53;;;18.90;90.10;;;;;;5017655;28;20050;-66
2023/12/21 08:53:22;;;;;;;60.55;55.03;;;;;;;;;;4994351;28;20177;-66
2023/12/21 08:55:48;;;;;;;56.13;50.95;;;;;;;;;;5021848;28;20054;-64
2023/12/21 08:58:14;;;;;;;50.22;45.28;;;;;;;;;;5020725;28;20107;-65
2023/12/21 09:00:40;;;;;;;49.35;44.60;;;18.80;89.90;;;;;;5020311;28;20121;-65
2023/12/21 09:03:06;;;;;;;112.78;103.03;;;18.90;90.00;;;;;;5020870;28;20120;-64
2023/12/21 09:05:32;;;;;;;78.05;71.05;;;19.00;90.00;;;;;;5020280;28;20373;-66
2023/12/21 09:07:58;;;;;;;65.63;59.42;;;;;;;;;;5012598;28;20072;-66
2023/12/21 09:10:24;;;;;;;60.78;54.60;;;18.80;90.00;;;;;;5014057;28;20045;-66
2023/12/21 09:12:50;;;;;;;57.00;51.70;;;18.80;90.00;;;;;;5046607;28;20041;-68
2023/12/21 09:15:16;;;;;;;51.30;46.50;;;18.90;90.00;;;;;;5029941;28;20057;-66
2023/12/21 09:17:42;;;;;;;47.67;42.97;;;18.90;90.00;;;;;;4994796;28;20046;-67
2023/12/21 09:20:08;;;;;;;43.92;39.83;;;19.00;89.90;;;;;;5049380;28;20050;-67
2023/12/21 09:22:34;;;;;;;41.45;37.42;;;19.00;89.70;;;;;;5030282;28;20079;-65
2023/12/21 09:25:02;;;;;;;38.05;34.15;;;18.90;89.60;;;;;;5035013;28;20054;-64
2023/12/21 09:27:28;;;;;;;33.80;30.50;;;19.10;89.30;;;;;;5020315;28;20183;-65
2023/12/21 09:29:54;;;;;;;31.55;28.20;;;19.10;89.60;;;;;;5047108;28;20135;-66
2023/12/21 09:32:20;;;;;;;30.25;27.27;;;19.20;89.50;;;;;;5023426;28;20061;-64
2023/12/21 09:34:47;;;;;;;27.15;24.48;;;19.10;89.50;;;;;;5030583;28;20128;-64
2023/12/21 09:37:14;;;;;;;25.50;22.85;;;19.00;89.50;;;;;;5010058;28;20046;-64
2023/12/21 09:39:40;;;;;;;23.40;21.17;;;19.00;86.90;;;;;;5011377;28;20417;-64
2023/12/21 09:42:06;;;;;;;21.55;19.20;;;19.00;89.40;;;;;;5019828;28;20045;-65
2023/12/21 09:44:31;;;;;;;22.40;18.08;;;18.90;89.50;;;;;;5062352;28;20517;-64
2023/12/21 09:46:57;;;;;;;18.48;16.58;;;19.10;89.60;;;;;;5002220;28;20058;-65
2023/12/21 09:49:23;;;;;;;21.00;18.00;;;19.00;89.70;;;;;;5021608;28;20041;-66
2023/12/21 09:51:49;;;;;;;66.53;52.53;;;19.00;89.70;;;;;;5045847;28;20053;-67
2023/12/21 09:54:16;;;;;;;40.33;30.38;;;18.90;89.50;;;;;;5062550;28;20055;-67
2023/12/21 09:56:42;;;;;;;37.03;27.02;;;18.90;89.60;;;;;;5059310;28;20047;-67
2023/12/21 09:59:08;;;;;;;28.52;23.10;;;19.00;89.80;;;;;;5023036;28;20041;-62
2023/12/21 10:01:34;;;;;;;29.92;20.40;;;;;;;;;;5015051;28;20065;-63
2023/12/21 10:04:00;;;;;;;24.88;17.58;;;19.20;89.40;;;;;;5011932;28;20144;-65
2023/12/21 10:06:26;;;;;;;80.72;19.90;;;19.10;89.90;;;;;;5058074;28;20116;-66
2023/12/21 10:08:52;;;;;;;152.60;24.77;;;19.10;89.80;;;;;;5024477;28;20139;-67
2023/12/21 10:11:19;;;;;;;178.20;25.38;;;;;;;;;;5059523;28;20068;-67
2023/12/21 10:13:46;;;;;;;137.20;21.92;;;19.20;89.90;;;;;;5043927;28;20856;-67
2023/12/21 10:16:12;;;;;;;122.18;16.27;;;19.20;89.80;;;;;;5036632;28;20111;-66
2023/12/21 10:18:38;;;;;;;72.88;14.43;;;19.10;89.80;;;;;;5027407;28;20046;-66
2023/12/21 10:21:04;;;;;;;78.63;13.60;;;19.00;90.00;;;;;;5018269;28;20080;-65
2023/12/21 10:23:30;;;;;;;72.45;12.90;;;19.00;90.00;;;;;;5009320;28;20042;-65
2023/12/21 10:25:58;;;;;;;55.78;12.23;;;;;;;;;;5040437;28;20045;-67
2023/12/21 10:28:24;;;;;;;56.45;10.35;;;19.10;90.00;;;;;;5038339;28;20041;-67
2023/12/21 10:31:00;;;;;;;52.97;10.38;;;19.10;90.00;;;;;;5032558;28;20399;-66
2023/12/21 10:33:27;;;;;;;42.85;8.60;;;;;;;;;;5008771;28;20056;-64
2023/12/21 10:35:53;;;;;;;32.63;7.97;;;19.20;90.10;;;;;;5031697;28;20057;-74
2023/12/21 10:38:19;;;;;;;55.40;25.63;;;19.30;90.10;;;;;;5033631;28;20045;-65
2023/12/21 10:40:45;;;;;;;53.05;21.90;;;;;;;;;;5015687;28;20038;-62
2023/12/21 10:43:16;;;;;;;46.53;18.30;;;19.40;90.10;;;;;;5015502;28;20639;-64
2023/12/21 10:45:45;;;;;;;49.15;14.75;;;19.00;85.80;;;;;;5032576;28;20140;-67
2023/12/21 10:48:19;;;;;;;35.03;14.00;;;19.20;90.00;;;;;;5033069;28;20041;-66
2023/12/21 10:50:46;;;;;;;32.42;12.20;;;19.30;89.90;;;;;;5016907;28;20104;-66
2023/12/21 10:53:13;;;;;;;34.10;11.52;;;;;;;;;;5031607;28;20042;-66
2023/12/21 10:55:42;;;;;;;31.45;10.38;;;19.50;89.70;;;;;;5027009;28;20053;-66
2023/12/21 10:58:08;;;;;;;33.35;9.65;;;19.60;89.30;;;;;;5031500;28;20474;-65
2023/12/21 11:00:34;;;;;;;38.60;9.13;;;;;;;;;;5053335;28;20038;-64
2023/12/21 11:03:00;;;;;;;26.63;8.27;;;19.80;89.30;;;;;;5016788;28;20041;-64
2023/12/21 11:05:27;;;;;;;33.10;10.60;;;19.60;89.30;;;;;;5034972;28;20038;-71
2023/12/21 11:07:54;;;;;;;246.18;54.03;;;19.70;86.20;;;;;;5016909;28;20072;-67
2023/12/21 11:10:21;;;;;;;138.38;34.45;;;19.70;89.10;;;;;;5010550;28;20057;-66
2023/12/21 11:12:47;;;;;;;121.78;28.33;;;19.80;86.30;;;;;;5024543;28;20045;-65
2023/12/21 11:15:14;;;;;;;101.18;24.48;;;20.10;86.60;;;;;;5032732;28;20038;-65
2023/12/21 11:17:41;;;;;;;88.85;22.92;;;;;;;;;;5018489;28;20100;-65
2023/12/21 11:20:08;;;;;;;86.85;19.88;;;19.80;85.70;;;;;;5018412;28;20137;-65
2023/12/21 11:22:38;;;;;;;58.63;17.15;;;20.10;85.90;;;;;;5009487;28;20057;-66
2023/12/21 11:25:04;;;;;;;50.67;14.30;;;20.10;88.40;;;;;;5030242;28;20065;-67
2023/12/21 11:27:35;;;;;;;47.45;13.35;;;20.20;88.30;;;;;;5014705;28;20069;-66
2023/12/21 11:30:10;;;;;;;46.33;12.82;;;20.20;88.20;;;;;;5045945;28;20095;-64
2023/12/21 11:32:48;;;;;;;40.22;11.25;;;20.20;88.20;;;;;;5016382;28;20718;-67
2023/12/21 11:35:24;;;;;;;37.80;10.80;;;20.10;83.90;;;;;;5039474;28;20045;-67
2023/12/21 11:37:56;;;;;;;28.48;9.40;;;20.10;84.50;;;;;;5059142;28;20506;-66
2023/12/21 11:40:22;;;;;;;21.13;8.93;;;20.10;88.10;;;;;;5045005;28;20081;-66
2023/12/21 11:42:49;;;;;;;19.33;8.02;;;20.20;88.20;;;;;;5030788;28;20094;-65
2023/12/21 11:45:28;;;;;;;19.25;6.75;;;19.90;83.90;;;;;;5013093;28;20487;-65
2023/12/21 11:47:55;;;;;;;21.85;6.70;;;20.00;88.20;;;;;;5045971;28;20033;-65
2023/12/21 11:50:23;;;;;;;16.70;6.68;;;19.90;85.60;;;;;;5013698;28;20137;-65
2023/12/21 11:52:49;;;;;;;13.43;6.00;;;19.70;88.20;;;;;;5012995;28;20128;-67
2023/12/21 11:55:25;;;;;;;14.48;5.55;;;19.70;84.20;;;;;;5029451;28;20581;-66
2023/12/21 11:58:16;;;;;;;14.63;5.20;;;19.80;85.90;;;;;;5022021;28;20084;-66
2023/12/21 12:00:49;;;;;;;13.10;4.80;;;;;;;;;;5013771;28;20054;-67
2023/12/21 12:03:15;;;;;;;12.93;4.90;;;19.70;88.60;;;;;;5031697;28;20050;-67
2023/12/21 12:05:41;;;;;;;15.40;4.90;;;19.70;87.30;;;;;;5047415;28;20091;-68
2023/12/21 12:08:07;;;;;;;11.38;5.53;;;;;;;;;;5032256;28;20089;-66
2023/12/21 12:10:34;;;;;;;15.57;10.65;;;19.60;88.80;;;;;;5065649;28;20411;-67
2023/12/21 12:13:00;;;;;;;12.60;8.65;;;19.60;87.90;;;;;;5027679;28;20047;-65
2023/12/21 12:15:27;;;;;;;12.10;7.25;;;19.60;87.60;;;;;;5015649;28;20534;-66
2023/12/21 12:17:54;;;;;;;9.75;6.30;;;;;;;;;;5046809;28;20052;-66
2023/12/21 12:20:19;;;;;;;11.02;6.43;;;19.70;88.60;;;;;;5013210;28;20101;-67
2023/12/21 12:22:45;;;;;;;9.25;5.53;;;19.70;86.00;;;;;;5012911;28;20081;-68
2023/12/21 12:25:16;;;;;;;9.82;5.55;;;19.80;85.70;;;;;;5044247;28;20510;-65
2023/12/21 12:27:43;;;;;;;10.77;4.78;;;;;;;;;;5053636;28;20080;-66
2023/12/21 12:30:10;;;;;;;8.23;4.57;;;19.80;88.30;;;;;;5033815;28;20175;-65
2023/12/21 12:32:36;;;;;;;9.23;4.70;;;19.70;88.20;;;;;;5038260;28;20174;-66
2023/12/21 12:35:03;;;;;;;9.63;4.00;;;;;;;;;;5014243;28;20123;-66
2023/12/21 12:37:30;;;;;;;12.45;4.45;;;19.80;88.20;;;;;;5018447;28;20059;-65
2023/12/21 12:39:56;;;;;;;10.20;4.10;;;19.80;88.20;;;;;;5038233;28;20184;-67
2023/12/21 12:42:22;;;;;;;9.18;3.83;;;;;;;;;;5064436;28;20530;-64
2023/12/21 12:44:51;;;;;;;10.90;4.47;;;19.70;88.20;;;;;;5058742;28;20506;-67
2023/12/21 12:47:19;;;;;;;12.18;5.30;;;;;;;;;;5057932;28;20466;-66
2023/12/21 12:49:45;;;;;;;13.10;4.80;;;19.60;88.40;;;;;;5049508;28;20037;-67
2023/12/21 12:52:18;;;;;;;19.77;5.05;;;19.60;88.50;;;;;;5017746;28;20475;-67
2023/12/21 12:54:46;;;;;;;21.30;4.93;;;19.70;88.20;;;;;;5048642;28;20040;-67
2023/12/21 12:57:12;;;;;;;32.17;5.60;;;19.60;88.30;;;;;;5064522;28;20494;-67
2023/12/21 12:59:38;;;;;;;26.63;5.43;;;19.80;87.80;;;;;;5020509;28;20380;-66